Time;durP1;ratioP1;P1;durP2;ratioP2;P2;SDS_P1;SDS_P2;PMS_P1;PMS_P2;Temp;Humidity;BMP_temperature;BMP_pressure;BME280_temperature;BME280_humidity;BME280_pressure;Samples;Min_cycle;Max_cycle;Signal;HPM_P1;HPM_P2
2024/04/18 00:00:51;;;;;;;1.58;0.63;;;18.10;56.70;;;;;;6432518;22;20331;-83
2024/04/18 00:03:17;;;;;;;1.42;0.70;;;18.20;56.80;;;;;;6474470;22;20400;-83
2024/04/18 00:05:42;;;;;;;2.90;0.80;;;18.10;56.70;;;;;;6474906;22;20648;-84
2024/04/18 00:08:08;;;;;;;1.25;0.80;;;18.10;56.60;;;;;;6390928;22;20590;-83
2024/04/18 00:10:34;;;;;;;1.83;1.10;;;18.20;56.70;;;;;;6433038;22;20262;-83
2024/04/18 00:13:00;;;;;;;1.08;0.90;;;18.10;56.80;;;;;;6391057;22;20227;-83
2024/04/18 00:15:28;;;;;;;1.25;0.57;;;18.10;56.80;;;;;;6390629;22;20522;-83
2024/04/18 00:17:56;;;;;;;3.22;1.10;;;18.20;56.70;;;;;;6349541;22;20726;-83
2024/04/18 00:20:24;;;;;;;1.52;0.70;;;18.10;56.80;;;;;;6308623;22;20227;-83
2024/04/18 00:22:50;;;;;;;1.13;1.00;;;18.10;56.80;;;;;;6349379;22;20278;-83
2024/04/18 00:25:16;;;;;;;1.27;0.80;;;18.10;56.70;;;;;;6390793;22;20262;-83
2024/04/18 00:27:42;;;;;;;1.77;0.90;;;18.10;56.70;;;;;;6432830;22;20223;-83
2024/04/18 00:30:08;;;;;;;1.67;0.82;;;18.10;56.60;;;;;;6390738;22;20313;-83
2024/04/18 00:32:35;;;;;;;1.40;0.70;;;18.10;56.70;;;;;;6474536;22;20251;-84
2024/04/18 00:35:01;;;;;;;1.48;1.08;;;18.10;56.50;;;;;;6476666;22;20258;-84
2024/04/18 00:37:26;;;;;;;1.48;0.70;;;18.10;56.70;;;;;;6432274;22;20250;-82
2024/04/18 00:39:53;;;;;;;0.80;0.70;;;18.10;56.80;;;;;;6474620;22;20219;-83
2024/04/18 00:42:19;;;;;;;1.73;0.80;;;18.10;56.70;;;;;;6432379;22;20289;-84
2024/04/18 00:44:50;;;;;;;1.95;0.95;;;18.10;56.80;;;;;;6432692;22;20270;-83
2024/04/18 00:47:18;;;;;;;2.63;1.00;;;18.10;56.70;;;;;;6348705;22;20246;-84
2024/04/18 00:49:45;;;;;;;1.20;0.80;;;18.10;56.70;;;;;;6348694;22;20257;-83
2024/04/18 00:52:17;;;;;;;2.15;0.90;;;18.00;56.70;;;;;;6349109;22;20257;-83
2024/04/18 00:54:42;;;;;;;1.38;1.13;;;18.00;56.80;;;;;;6473829;22;20215;-83
2024/04/18 00:57:08;;;;;;;2.58;0.85;;;18.10;56.80;;;;;;6474342;22;20328;-84
2024/04/18 00:59:35;;;;;;;1.05;0.70;;;18.00;56.50;;;;;;6476371;22;20223;-83
2024/04/18 01:02:01;;;;;;;1.50;0.90;;;18.10;56.70;;;;;;6475623;22;20223;-84
2024/04/18 01:04:26;;;;;;;0.82;0.73;;;18.00;56.70;;;;;;6434257;22;20531;-83
2024/04/18 01:06:52;;;;;;;1.50;0.93;;;18.00;56.80;;;;;;6434301;22;20557;-84
2024/04/18 01:09:18;;;;;;;1.38;0.70;;;18.00;56.80;;;;;;6393066;22;20636;-84
2024/04/18 01:11:44;;;;;;;1.73;0.90;;;18.00;56.80;;;;;;6476520;22;20671;-83
2024/04/18 01:14:11;;;;;;;1.73;0.80;;;18.10;56.70;;;;;;6434494;22;20325;-83
2024/04/18 01:16:37;;;;;;;0.85;0.63;;;18.00;56.70;;;;;;6434566;22;20215;-84
2024/04/18 01:19:04;;;;;;;1.58;0.90;;;18.00;56.70;;;;;;6392726;22;20215;-84
2024/04/18 01:21:29;;;;;;;1.38;0.73;;;18.10;56.90;;;;;;6435067;22;20235;-84
2024/04/18 01:23:55;;;;;;;1.27;0.90;;;18.00;56.70;;;;;;6478642;22;20648;-84
2024/04/18 01:26:21;;;;;;;0.93;0.80;;;18.00;56.80;;;;;;6434068;22;20691;-84
2024/04/18 01:28:47;;;;;;;1.50;0.95;;;18.00;57.00;;;;;;6476190;22;20527;-83
2024/04/18 01:31:12;;;;;;;1.05;0.70;;;18.00;56.90;;;;;;6434570;22;20211;-83
2024/04/18 01:33:38;;;;;;;1.45;1.05;;;18.00;56.90;;;;;;6392477;22;20707;-84
2024/04/18 01:36:04;;;;;;;1.20;0.82;;;18.00;56.70;;;;;;6478420;22;20667;-84
2024/04/18 01:38:30;;;;;;;1.35;1.17;;;18.00;56.70;;;;;;6476153;22;20330;-84
2024/04/18 01:40:55;;;;;;;1.20;0.80;;;18.00;56.80;;;;;;6476235;22;20215;-84
2024/04/18 01:43:21;;;;;;;1.10;1.00;;;18.00;56.90;;;;;;6434210;22;20743;-84
2024/04/18 01:45:47;;;;;;;1.17;0.85;;;18.00;57.00;;;;;;6392852;22;20547;-84
2024/04/18 01:48:13;;;;;;;1.40;1.10;;;17.90;56.90;;;;;;6434047;22;20212;-84
2024/04/18 01:50:38;;;;;;;1.30;1.10;;;18.00;56.80;;;;;;6434223;22;20718;-84
2024/04/18 01:53:05;;;;;;;1.80;1.10;;;18.00;57.00;;;;;;6434048;22;20230;-84
2024/04/18 01:55:31;;;;;;;1.33;0.85;;;18.00;56.80;;;;;;6433128;22;20334;-84
2024/04/18 01:57:57;;;;;;;1.15;0.85;;;18.00;57.00;;;;;;6433790;22;20647;-85
2024/04/18 02:00:23;;;;;;;0.95;0.80;;;18.00;56.80;;;;;;6434186;22;20682;-85
2024/04/18 02:02:49;;;;;;;0.98;0.73;;;18.00;56.70;;;;;;6433686;22;20295;-84
2024/04/18 02:05:17;;;;;;;1.10;1.00;;;18.00;56.90;;;;;;6392330;22;20231;-84
2024/04/18 02:07:43;;;;;;;1.60;0.70;;;18.00;56.90;;;;;;6434099;22;20215;-84
2024/04/18 02:10:09;;;;;;;2.25;0.90;;;17.90;56.80;;;;;;6434472;22;20223;-84
2024/04/18 02:12:34;;;;;;;1.45;0.82;;;18.00;56.70;;;;;;6433567;22;20266;-84
2024/04/18 02:15:02;;;;;;;1.90;0.80;;;18.00;56.80;;;;;;6478627;22;20325;-83
2024/04/18 02:17:28;;;;;;;1.42;0.88;;;18.00;56.90;;;;;;6434738;22;20227;-83
2024/04/18 02:19:53;;;;;;;3.20;1.27;;;17.90;56.90;;;;;;6391975;22;20234;-84
2024/04/18 02:22:19;;;;;;;2.55;0.90;;;17.90;56.80;;;;;;6433907;22;20508;-83
2024/04/18 02:25:08;;;;;;;1.13;0.80;;;18.00;56.80;;;;;;6433360;22;20333;-83
2024/04/18 02:27:35;;;;;;;1.88;1.10;;;18.00;56.80;;;;;;6433315;22;20231;-84
2024/04/18 02:30:03;;;;;;;0.73;0.70;;;18.00;56.80;;;;;;6392418;22;20308;-83
2024/04/18 02:32:30;;;;;;;0.98;0.80;;;17.90;56.70;;;;;;6392361;22;20349;-83
2024/04/18 02:34:56;;;;;;;1.40;0.95;;;18.00;56.90;;;;;;6433714;22;20316;-84
2024/04/18 02:37:22;;;;;;;1.63;1.00;;;18.00;56.90;;;;;;6475744;22;20227;-84
2024/04/18 02:39:48;;;;;;;1.95;0.90;;;17.90;56.90;;;;;;6475545;22;20656;-83
2024/04/18 02:42:16;;;;;;;2.05;1.05;;;17.90;56.90;;;;;;6433585;22;20284;-83
2024/04/18 02:44:42;;;;;;;2.05;0.95;;;17.90;56.90;;;;;;6434370;22;20287;-84
2024/04/18 02:47:08;;;;;;;1.33;0.75;;;18.00;57.10;;;;;;6475647;22;20317;-84
2024/04/18 02:49:35;;;;;;;1.65;1.10;;;17.90;57.00;;;;;;6475612;22;20229;-84
2024/04/18 02:52:01;;;;;;;1.40;0.98;;;17.90;56.90;;;;;;6433252;22;20219;-84
2024/04/18 02:54:30;;;;;;;2.05;1.20;;;17.90;56.70;;;;;;6474765;22;20254;-84
2024/04/18 02:56:56;;;;;;;1.65;1.00;;;17.90;56.90;;;;;;6433266;22;20266;-83
2024/04/18 02:59:22;;;;;;;1.33;0.90;;;17.90;56.90;;;;;;6475522;22;20211;-84
2024/04/18 03:01:49;;;;;;;3.08;1.00;;;17.90;56.80;;;;;;6475608;22;20235;-83
2024/04/18 03:04:14;;;;;;;1.70;1.00;;;18.00;56.80;;;;;;6391543;22;20249;-84
2024/04/18 03:06:41;;;;;;;2.65;1.10;;;18.00;56.90;;;;;;6433674;22;20219;-84
2024/04/18 03:09:07;;;;;;;1.50;1.00;;;17.90;57.40;;;;;;6475444;22;20262;-84
2024/04/18 03:11:33;;;;;;;1.45;1.00;;;17.90;56.70;;;;;;6391651;22;20219;-84
2024/04/18 03:14:00;;;;;;;1.20;0.70;;;17.90;56.90;;;;;;6391703;22;20674;-84
2024/04/18 03:16:26;;;;;;;1.48;1.05;;;17.90;56.70;;;;;;6475172;22;20254;-84
2024/04/18 03:18:52;;;;;;;1.30;0.90;;;17.90;57.10;;;;;;6432998;22;20255;-84
2024/04/18 03:21:18;;;;;;;1.95;0.90;;;17.90;57.10;;;;;;6475320;22;20223;-85
2024/04/18 03:23:44;;;;;;;2.10;0.80;;;17.90;57.00;;;;;;6433082;22;20653;-83
2024/04/18 03:26:11;;;;;;;1.25;0.80;;;17.80;57.00;;;;;;6433035;22;20325;-83
2024/04/18 03:28:38;;;;;;;1.23;0.93;;;17.90;57.00;;;;;;6308851;22;20268;-83
2024/04/18 03:31:05;;;;;;;1.25;0.90;;;17.80;56.90;;;;;;6309483;22;20261;-84
2024/04/18 03:33:34;;;;;;;1.25;0.80;;;17.90;57.00;;;;;;6433306;22;20283;-83
2024/04/18 03:36:04;;;;;;;2.08;0.90;;;17.90;56.90;;;;;;6390669;22;20261;-83
2024/04/18 03:38:30;;;;;;;1.35;1.00;;;17.90;56.90;;;;;;6474724;22;20259;-83
2024/04/18 03:40:57;;;;;;;1.13;0.98;;;17.90;57.10;;;;;;6433276;22;20258;-83
2024/04/18 03:43:26;;;;;;;1.70;0.80;;;17.90;57.00;;;;;;6475343;22;20214;-84
2024/04/18 03:45:58;;;;;;;1.30;1.00;;;17.90;56.90;;;;;;6349417;22;20254;-83
2024/04/18 03:48:24;;;;;;;1.85;1.08;;;17.80;57.00;;;;;;6392110;22;20290;-83
2024/04/18 03:50:49;;;;;;;1.20;1.00;;;17.90;57.10;;;;;;6433033;22;20231;-82
2024/04/18 03:53:16;;;;;;;1.83;1.00;;;17.90;57.10;;;;;;6433202;22;20515;-83
2024/04/18 03:55:42;;;;;;;1.17;1.00;;;17.90;56.90;;;;;;6389451;22;20219;-83
2024/04/18 03:58:08;;;;;;;1.08;0.70;;;17.80;57.00;;;;;;6433133;22;20266;-83
2024/04/18 04:00:34;;;;;;;1.42;0.98;;;17.90;57.00;;;;;;6475199;22;20343;-83
2024/04/18 04:03:00;;;;;;;1.00;0.90;;;17.80;56.90;;;;;;6474648;22;20215;-84
2024/04/18 04:05:26;;;;;;;1.55;1.13;;;17.80;57.00;;;;;;6476947;22;20656;-84
2024/04/18 04:07:51;;;;;;;0.98;0.88;;;17.90;57.10;;;;;;6390767;22;20650;-83
2024/04/18 04:10:17;;;;;;;0.95;0.82;;;17.80;57.00;;;;;;6432738;22;20258;-84
2024/04/18 04:12:43;;;;;;;2.08;0.85;;;17.80;56.90;;;;;;6432971;22;20679;-84
2024/04/18 04:15:08;;;;;;;1.70;0.90;;;17.90;57.10;;;;;;6390844;22;20219;-84
2024/04/18 04:17:37;;;;;;;1.30;1.00;;;17.90;56.90;;;;;;6432333;22;20219;-84
2024/04/18 04:20:03;;;;;;;1.00;0.90;;;17.90;57.00;;;;;;6432275;22;20253;-84
2024/04/18 04:22:29;;;;;;;1.80;1.10;;;17.80;57.60;;;;;;6476575;22;20215;-83
2024/04/18 04:24:55;;;;;;;2.15;0.85;;;17.90;57.10;;;;;;6390473;22;20330;-84
2024/04/18 04:27:20;;;;;;;2.17;0.90;;;17.80;57.60;;;;;;6476389;22;20215;-83
2024/04/18 04:29:46;;;;;;;1.23;0.90;;;17.80;56.90;;;;;;6432104;22;20308;-84
2024/04/18 04:32:20;;;;;;;1.20;1.00;;;17.90;57.00;;;;;;6390807;22;20245;-84
2024/04/18 04:34:48;;;;;;;1.98;0.80;;;17.80;56.90;;;;;;6474296;22;20745;-83
2024/04/18 04:37:15;;;;;;;1.02;0.93;;;17.90;56.80;;;;;;6474822;22;20223;-83
2024/04/18 04:39:41;;;;;;;1.48;1.10;;;17.80;56.70;;;;;;6431503;22;20517;-84
2024/04/18 04:42:07;;;;;;;1.35;0.95;;;17.80;56.90;;;;;;6390677;22;20659;-83
2024/04/18 04:44:33;;;;;;;1.23;1.05;;;17.80;57.00;;;;;;6432680;22;20266;-84
2024/04/18 04:46:58;;;;;;;1.23;1.13;;;17.80;57.00;;;;;;6474704;22;20215;-83
2024/04/18 04:49:24;;;;;;;1.55;1.02;;;17.80;57.00;;;;;;6390603;22;20710;-84
2024/04/18 04:51:50;;;;;;;1.27;1.00;;;17.80;57.00;;;;;;6472071;22;20219;-83
2024/04/18 04:54:16;;;;;;;1.30;0.90;;;17.80;57.00;;;;;;6386662;22;20223;-84
2024/04/18 04:56:45;;;;;;;1.10;0.88;;;17.80;57.00;;;;;;6388657;22;20267;-84
2024/04/18 04:59:11;;;;;;;1.80;1.08;;;17.80;57.10;;;;;;6389685;22;20231;-84
2024/04/18 05:01:36;;;;;;;2.30;0.93;;;17.80;57.00;;;;;;6432541;22;20242;-84
2024/04/18 05:04:02;;;;;;;1.80;1.10;;;17.80;57.70;;;;;;6432462;22;20230;-85
2024/04/18 05:06:30;;;;;;;1.65;1.10;;;17.80;57.10;;;;;;6476544;22;20215;-85
2024/04/18 05:08:56;;;;;;;1.13;1.00;;;17.80;57.10;;;;;;6432578;22;20271;-84
2024/04/18 05:11:22;;;;;;;1.38;1.00;;;17.80;56.90;;;;;;6432497;22;20231;-84
2024/04/18 05:13:47;;;;;;;1.00;0.90;;;17.70;57.00;;;;;;6474359;22;20216;-84
2024/04/18 05:16:13;;;;;;;1.10;0.93;;;17.80;57.00;;;;;;6474468;22;20215;-84
2024/04/18 05:18:39;;;;;;;1.40;1.27;;;17.80;57.20;;;;;;6474193;22;20227;-84
2024/04/18 05:21:05;;;;;;;1.40;1.17;;;17.80;56.90;;;;;;6476240;22;20219;-84
2024/04/18 05:23:31;;;;;;;1.70;1.02;;;17.80;57.00;;;;;;6390537;22;21039;-84
2024/04/18 05:25:57;;;;;;;1.42;1.00;;;17.80;56.90;;;;;;6476320;22;20266;-84
2024/04/18 05:28:40;;;;;;;1.75;1.27;;;17.80;56.90;;;;;;6474510;22;20211;-83
2024/04/18 05:31:07;;;;;;;2.85;1.20;;;17.80;57.10;;;;;;6476451;22;20664;-84
2024/04/18 05:33:33;;;;;;;1.58;1.05;;;17.80;56.90;;;;;;6390405;22;20266;-84
2024/04/18 05:35:58;;;;;;;1.00;0.80;;;17.80;57.10;;;;;;6390663;22;20524;-84
2024/04/18 05:38:25;;;;;;;1.73;1.02;;;17.80;57.00;;;;;;6432579;22;20289;-84
2024/04/18 05:40:51;;;;;;;1.00;0.90;;;17.80;57.10;;;;;;6390201;22;20289;-84
2024/04/18 05:43:17;;;;;;;1.08;0.80;;;17.70;57.00;;;;;;6432558;22;20211;-84
2024/04/18 05:45:44;;;;;;;1.08;0.95;;;17.80;57.10;;;;;;6474128;22;20525;-84
2024/04/18 05:48:10;;;;;;;1.30;1.10;;;17.70;57.00;;;;;;6433455;22;20219;-84
2024/04/18 05:50:36;;;;;;;0.93;0.82;;;17.80;56.80;;;;;;6434040;22;20324;-84
2024/04/18 05:53:02;;;;;;;1.58;1.08;;;17.80;56.90;;;;;;6392531;22;20219;-85
2024/04/18 05:55:27;;;;;;;2.22;1.40;;;17.80;56.90;;;;;;6475372;22;20227;-84
2024/04/18 05:57:53;;;;;;;2.70;1.00;;;17.80;57.10;;;;;;6434236;22;20320;-84
2024/04/18 06:00:19;;;;;;;1.20;1.00;;;17.80;56.90;;;;;;6433928;22;20598;-84
2024/04/18 06:02:45;;;;;;;1.20;1.10;;;17.70;57.10;;;;;;6434195;22;20596;-84
2024/04/18 06:05:10;;;;;;;0.95;0.80;;;17.80;57.10;;;;;;6434214;22;20219;-84
2024/04/18 06:07:36;;;;;;;1.13;1.00;;;17.70;57.00;;;;;;6433977;22;20655;-85
2024/04/18 06:10:02;;;;;;;1.08;0.95;;;17.70;57.00;;;;;;6392683;22;20550;-84
2024/04/18 06:12:28;;;;;;;1.10;1.00;;;17.70;56.80;;;;;;6476251;22;20299;-84
2024/04/18 06:14:53;;;;;;;1.92;1.13;;;17.80;56.60;;;;;;6475779;22;20227;-84
2024/04/18 06:17:19;;;;;;;1.60;0.90;;;17.90;56.50;;;;;;6475961;22;20469;-84
2024/04/18 06:19:53;;;;;;;1.13;0.90;;;17.80;56.40;;;;;;6475996;22;20270;-84
2024/04/18 06:22:19;;;;;;;1.20;0.90;;;17.90;55.90;;;;;;6433963;22;20286;-84
2024/04/18 06:24:45;;;;;;;1.17;0.90;;;17.90;56.00;;;;;;6391763;22;20235;-84
2024/04/18 06:27:11;;;;;;;1.50;1.08;;;18.00;56.20;;;;;;6433387;22;20290;-84
2024/04/18 06:29:38;;;;;;;1.67;0.95;;;17.90;56.10;;;;;;6475686;22;20219;-84
2024/04/18 06:32:05;;;;;;;1.45;1.00;;;17.90;56.10;;;;;;6476121;22;20219;-84
2024/04/18 06:34:31;;;;;;;1.13;1.00;;;18.00;56.00;;;;;;6475470;22;20269;-84
2024/04/18 06:36:57;;;;;;;1.10;0.90;;;18.00;55.90;;;;;;6475965;22;20226;-84
2024/04/18 06:39:23;;;;;;;3.00;1.20;;;18.00;55.80;;;;;;6393076;22;20235;-84
2024/04/18 06:41:49;;;;;;;2.00;0.98;;;18.00;55.70;;;;;;6434141;22;20644;-83
2024/04/18 06:44:15;;;;;;;1.73;1.20;;;18.00;55.40;;;;;;6473537;22;20216;-84
2024/04/18 06:46:40;;;;;;;1.25;0.73;;;18.10;55.70;;;;;;6472329;22;20963;-84
2024/04/18 06:49:06;;;;;;;1.27;1.00;;;18.00;55.90;;;;;;6472339;22;20566;-84
2024/04/18 06:51:33;;;;;;;1.42;1.10;;;18.00;56.00;;;;;;6472640;22;20227;-83
2024/04/18 06:53:59;;;;;;;1.88;1.20;;;18.00;55.70;;;;;;6431706;22;20270;-84
2024/04/18 06:56:25;;;;;;;1.10;1.00;;;18.00;55.70;;;;;;6473362;22;20739;-83
2024/04/18 06:58:51;;;;;;;1.15;0.98;;;18.00;55.80;;;;;;6473926;22;20227;-84
2024/04/18 07:01:17;;;;;;;1.30;1.00;;;18.00;55.40;;;;;;6435244;22;20246;-83
2024/04/18 07:03:43;;;;;;;2.45;1.00;;;18.00;55.90;;;;;;6393402;22;20224;-83
2024/04/18 07:06:08;;;;;;;1.60;1.30;;;18.10;56.20;;;;;;6435286;22;20590;-83
2024/04/18 07:08:35;;;;;;;1.75;1.10;;;18.00;55.40;;;;;;6435372;22;20242;-84
2024/04/18 07:11:02;;;;;;;2.30;1.00;;;18.00;55.50;;;;;;6477736;22;20223;-83
2024/04/18 07:13:29;;;;;;;2.55;1.13;;;18.00;55.40;;;;;;6479210;22;20277;-84
2024/04/18 07:15:56;;;;;;;1.02;0.90;;;18.10;55.50;;;;;;6392538;22;20658;-84
2024/04/18 07:18:22;;;;;;;2.53;0.80;;;18.00;55.00;;;;;;6392845;22;20526;-84
2024/04/18 07:20:50;;;;;;;0.82;0.80;;;18.00;55.30;;;;;;6434908;22;20286;-83
2024/04/18 07:23:17;;;;;;;1.10;1.00;;;18.00;55.20;;;;;;6435437;22;20219;-84
2024/04/18 07:25:42;;;;;;;1.13;1.00;;;18.10;54.70;;;;;;6434706;22;20275;-83
2024/04/18 07:28:08;;;;;;;1.10;1.00;;;18.10;54.60;;;;;;6395186;22;20246;-83
2024/04/18 07:30:34;;;;;;;0.88;0.85;;;18.20;55.20;;;;;;6393719;22;20223;-83
2024/04/18 07:33:03;;;;;;;1.08;0.98;;;18.10;55.40;;;;;;6393722;22;20286;-84
2024/04/18 07:35:33;;;;;;;1.92;1.13;;;18.10;55.70;;;;;;6436752;22;20567;-84
2024/04/18 07:37:59;;;;;;;1.50;1.08;;;18.10;55.60;;;;;;6393655;22;20220;-84
2024/04/18 07:40:25;;;;;;;0.82;0.70;;;18.10;55.70;;;;;;6394468;22;20317;-84
2024/04/18 07:42:51;;;;;;;1.30;0.90;;;18.10;55.70;;;;;;6394229;22;20249;-84
2024/04/18 07:45:17;;;;;;;1.20;0.95;;;18.00;55.20;;;;;;6435831;22;20249;-84
2024/04/18 07:47:44;;;;;;;0.88;0.75;;;18.20;55.30;;;;;;6437569;22;20219;-84
2024/04/18 07:50:10;;;;;;;1.27;1.00;;;18.10;55.10;;;;;;6396392;22;20216;-84
2024/04/18 07:52:36;;;;;;;1.08;0.95;;;18.20;54.80;;;;;;6437419;22;20223;-84
2024/04/18 07:55:01;;;;;;;0.82;0.82;;;18.20;55.40;;;;;;6436355;22;20266;-84
2024/04/18 07:57:27;;;;;;;1.67;0.75;;;18.20;55.50;;;;;;6437136;22;20231;-84
2024/04/18 07:59:53;;;;;;;2.05;1.00;;;18.20;55.40;;;;;;6477923;22;20761;-84
2024/04/18 08:02:20;;;;;;;2.67;1.17;;;18.20;55.30;;;;;;6394120;22;20288;-84
2024/04/18 08:04:47;;;;;;;2.55;1.00;;;18.20;55.70;;;;;;6435883;22;20246;-84
2024/04/18 08:07:13;;;;;;;1.35;0.98;;;18.20;55.40;;;;;;6436586;22;20227;-84
2024/04/18 08:09:41;;;;;;;0.63;0.63;;;18.20;55.60;;;;;;6435674;22;20215;-83
2024/04/18 08:12:09;;;;;;;0.98;0.88;;;18.20;55.40;;;;;;6435491;22;20249;-84
2024/04/18 08:14:36;;;;;;;1.52;0.85;;;18.20;55.60;;;;;;6393378;22;20305;-84
2024/04/18 08:17:04;;;;;;;2.13;1.10;;;18.20;55.20;;;;;;6432346;22;20258;-85
2024/04/18 08:19:30;;;;;;;1.00;0.90;;;18.30;55.10;;;;;;6435500;22;20671;-84
2024/04/18 08:21:56;;;;;;;1.10;1.00;;;18.30;55.20;;;;;;6394616;22;20267;-84
2024/04/18 08:24:27;;;;;;;0.82;0.80;;;18.30;55.00;;;;;;6478492;22;20527;-84
2024/04/18 08:26:54;;;;;;;0.82;0.77;;;18.30;54.60;;;;;;6396987;22;20267;-83
2024/04/18 08:29:22;;;;;;;1.52;1.00;;;18.30;54.80;;;;;;6437707;22;20719;-84
2024/04/18 08:31:49;;;;;;;1.20;1.00;;;18.30;54.90;;;;;;6437912;22;20219;-83
2024/04/18 08:34:15;;;;;;;1.17;0.90;;;18.40;55.00;;;;;;6436564;22;20219;-84
2024/04/18 08:36:41;;;;;;;1.75;1.17;;;18.40;54.50;;;;;;6436010;22;20242;-85
2024/04/18 08:39:07;;;;;;;1.25;0.95;;;18.40;54.50;;;;;;6477641;22;20210;-84
2024/04/18 08:41:34;;;;;;;1.25;0.93;;;18.40;54.50;;;;;;6393651;22;20266;-84
2024/04/18 08:44:02;;;;;;;0.77;0.68;;;18.40;54.20;;;;;;6438228;22;20234;-85
2024/04/18 08:46:32;;;;;;;1.55;0.98;;;18.50;54.60;;;;;;6437763;22;20227;-84
2024/04/18 08:48:58;;;;;;;1.00;0.90;;;18.50;54.70;;;;;;6395012;22;20219;-85
2024/04/18 08:51:24;;;;;;;1.20;0.90;;;18.50;54.80;;;;;;6397279;22;20258;-86
2024/04/18 08:53:53;;;;;;;1.05;0.90;;;18.40;55.10;;;;;;6395811;22;20691;-85
2024/04/18 08:56:19;;;;;;;0.82;0.70;;;18.40;55.00;;;;;;6393467;22;20249;-84
2024/04/18 08:58:45;;;;;;;1.63;1.00;;;18.40;55.10;;;;;;6477563;22;20215;-84
2024/04/18 09:01:11;;;;;;;1.33;0.90;;;18.30;55.10;;;;;;6432531;22;20223;-85
2024/04/18 09:03:40;;;;;;;1.58;1.00;;;18.30;55.40;;;;;;6432736;22;20722;-83
2024/04/18 09:06:09;;;;;;;1.30;0.90;;;18.30;55.40;;;;;;6474895;22;20211;-84
2024/04/18 09:08:37;;;;;;;1.10;0.98;;;18.40;54.60;;;;;;6438098;22;20258;-85
2024/04/18 09:11:04;;;;;;;1.55;0.80;;;18.40;55.00;;;;;;6476844;22;20275;-84
2024/04/18 09:13:31;;;;;;;1.25;0.88;;;18.40;55.00;;;;;;6434127;22;20223;-83
2024/04/18 09:15:59;;;;;;;0.77;0.70;;;18.50;53.80;;;;;;6392250;22;20258;-84
2024/04/18 09:18:51;;;;;;;1.63;0.90;;;18.50;54.40;;;;;;6396850;22;20267;-83
2024/04/18 09:21:22;;;;;;;0.95;0.80;;;18.50;54.10;;;;;;6316733;22;20211;-85
2024/04/18 09:23:51;;;;;;;1.08;0.88;;;18.60;54.60;;;;;;6436413;22;20347;-84
2024/04/18 09:26:18;;;;;;;1.15;0.95;;;18.60;54.80;;;;;;6393346;22;20793;-83
2024/04/18 09:28:44;;;;;;;1.23;1.00;;;18.60;54.40;;;;;;6311491;22;20220;-84
2024/04/18 09:31:11;;;;;;;1.85;0.70;;;18.60;54.70;;;;;;6394437;22;20317;-84
2024/04/18 09:33:37;;;;;;;0.80;0.80;;;18.50;54.40;;;;;;6343707;22;20224;-83
2024/04/18 09:36:03;;;;;;;1.00;0.90;;;18.50;54.40;;;;;;6385633;22;20259;-85
2024/04/18 09:38:32;;;;;;;0.80;0.80;;;18.50;54.70;;;;;;6344220;22;20280;-84
2024/04/18 09:41:07;;;;;;;1.45;0.70;;;18.60;54.90;;;;;;6384816;22;20228;-84
2024/04/18 09:44:04;;;;;;;1.33;0.88;;;18.60;54.40;;;;;;6385307;22;20331;-84
2024/04/18 09:46:32;;;;;;;1.70;0.95;;;18.50;55.00;;;;;;6385687;22;20280;-84
2024/04/18 09:49:01;;;;;;;0.80;0.80;;;18.50;54.90;;;;;;6347404;22;20254;-85
2024/04/18 09:51:27;;;;;;;0.85;0.63;;;18.50;54.80;;;;;;6345732;22;20311;-84
2024/04/18 09:53:54;;;;;;;1.38;0.90;;;18.50;54.90;;;;;;6346610;22;20224;-84
2024/04/18 09:56:26;;;;;;;1.88;1.00;;;18.50;54.80;;;;;;6344171;22;20228;-84
2024/04/18 09:58:51;;;;;;;1.40;0.80;;;18.50;54.80;;;;;;6384290;22;20374;-84
2024/04/18 10:01:18;;;;;;;0.82;0.70;;;18.50;55.40;;;;;;6342233;22;20676;-84
2024/04/18 10:03:45;;;;;;;1.20;1.05;;;18.50;54.80;;;;;;6394298;22;20262;-85
2024/04/18 10:06:10;;;;;;;1.23;0.90;;;18.50;54.60;;;;;;6439768;22;20590;-86
2024/04/18 10:08:49;;;;;;;0.68;0.68;;;18.50;55.00;;;;;;6398618;22;20243;-86
2024/04/18 10:11:15;;;;;;;1.00;0.90;;;18.50;54.70;;;;;;6397494;22;20310;-87
2024/04/18 10:13:50;;;;;;;0.73;0.70;;;18.50;54.80;;;;;;6396109;22;20687;-85
2024/04/18 10:16:19;;;;;;;4.85;1.02;;;18.50;54.40;;;;;;6401705;22;20290;-84
2024/04/18 10:18:45;;;;;;;0.80;0.80;;;18.50;54.90;;;;;;6435329;22;20554;-85
2024/04/18 10:21:15;;;;;;;0.85;0.75;;;18.50;54.80;;;;;;6479390;22;20215;-85
2024/04/18 10:24:01;;;;;;;1.60;0.90;;;18.50;54.60;;;;;;6477954;22;20325;-87
2024/04/18 10:26:52;;;;;;;0.60;0.60;;;18.40;54.70;;;;;;6335559;22;20290;-87
2024/04/18 10:29:31;;;;;;;1.48;0.80;;;18.50;54.70;;;;;;6244729;22;20227;-86
2024/04/18 10:32:42;;;;;;;2.13;1.08;;;18.50;55.00;;;;;;6252844;22;20259;-89
2024/04/18 10:35:41;;;;;;;0.52;0.52;;;18.50;54.90;;;;;;6172323;22;20235;-88
2024/04/18 10:38:26;;;;;;;1.08;0.70;;;18.50;55.10;;;;;;6131792;22;20228;-85
2024/04/18 10:41:06;;;;;;;0.95;0.80;;;18.40;55.20;;;;;;6253314;22;20284;-86
2024/04/18 10:43:32;;;;;;;0.82;0.80;;;18.50;55.30;;;;;;6213495;22;20537;-85
2024/04/18 10:46:06;;;;;;;0.65;0.60;;;18.40;55.00;;;;;;6209723;22;20314;-84
2024/04/18 10:48:40;;;;;;;0.90;0.70;;;18.40;55.20;;;;;;6211819;22;20262;-84
2024/04/18 10:51:10;;;;;;;0.98;0.77;;;18.40;55.10;;;;;;6207560;22;20219;-84
2024/04/18 10:53:37;;;;;;;1.63;0.70;;;18.40;54.90;;;;;;6204750;22;20282;-83
2024/04/18 10:56:06;;;;;;;0.95;0.73;;;18.40;55.00;;;;;;6200195;22;20228;-85
2024/04/18 11:05:38;;;;;;;0.80;0.63;;;18.50;55.00;;;;;;6277622;22;20376;-86
2024/04/18 11:11:35;;;;;;;1.52;0.70;;;18.50;54.70;;;;;;6136297;22;20270;-85
2024/04/18 11:14:34;;;;;;;1.30;0.90;;;18.50;54.50;;;;;;6140261;23;20713;-84
2024/04/18 11:18:28;;;;;;;1.83;0.60;;;18.60;54.70;;;;;;6104619;23;20272;-86
2024/04/18 11:20:53;;;;;;;0.80;0.60;;;18.60;54.40;;;;;;6118303;23;20234;-88
2024/04/18 12:48:25;;;;;;;1.67;0.85;;;18.70;55.00;;;;;;6543123;21;20250;-86
2024/04/18 12:51:31;;;;;;;2.45;0.70;;;18.70;55.10;;;;;;6064025;23;20301;-85
2024/04/18 12:54:16;;;;;;;0.80;0.68;;;18.70;55.70;;;;;;5762784;24;20298;-85
2024/04/18 12:57:12;;;;;;;3.13;0.70;;;18.80;55.20;;;;;;5735090;24;20235;-87
2024/04/18 12:59:51;;;;;;;2.53;0.70;;;18.70;55.50;;;;;;5759984;25;20236;-86
2024/04/18 13:02:50;;;;;;;0.80;0.50;;;18.70;55.50;;;;;;5691194;25;20235;-85
2024/04/18 13:05:23;;;;;;;2.50;0.70;;;18.70;55.50;;;;;;5668615;25;20283;-86
2024/04/18 13:07:55;;;;;;;2.05;0.98;;;18.80;55.60;;;;;;5679028;25;20376;-86
2024/04/18 13:10:25;;;;;;;5.47;0.70;;;18.80;55.50;;;;;;5648030;25;20253;-85
2024/04/18 13:13:01;;;;;;;2.92;0.80;;;18.80;55.80;;;;;;5650690;25;20315;-86
2024/04/18 13:15:45;;;;;;;0.85;0.70;;;18.80;55.70;;;;;;5650173;25;20253;-85
2024/04/18 13:18:15;;;;;;;3.58;0.85;;;18.80;55.60;;;;;;5650433;25;20778;-85
2024/04/18 13:20:50;;;;;;;3.78;0.88;;;18.80;55.10;;;;;;5682095;24;20392;-85
2024/04/18 13:23:29;;;;;;;1.75;0.90;;;18.80;56.00;;;;;;5855015;24;20267;-85
2024/04/18 13:26:09;;;;;;;;;;;;;;;;;;;;;
2024/04/18 13:29:15;;;;;;;2.38;0.85;;;18.80;55.70;;;;;;5850575;24;20268;-85
2024/04/18 13:31:42;;;;;;;1.02;0.70;;;18.90;55.80;;;;;;6079499;23;20229;-85
2024/04/18 13:34:17;;;;;;;2.15;0.70;;;18.80;55.80;;;;;;6122377;23;20230;-84
2024/04/18 13:37:14;;;;;;;;;;;;;;;;;;;;;
2024/04/18 13:40:06;;;;;;;1.80;0.90;;;18.90;55.70;;;;;;6200836;22;20235;-85
2024/04/18 13:43:19;;;;;;;;;;;;;;;;;;;;;
2024/04/18 13:46:17;;;;;;;2.17;1.00;;;19.00;55.50;;;;;;6253785;22;20234;-85
2024/04/18 13:49:03;;;;;;;2.03;1.05;;;19.00;55.60;;;;;;6195622;22;21088;-85
2024/04/18 13:51:54;;;;;;;1.45;0.93;;;18.90;55.70;;;;;;6295631;22;20268;-85
2024/04/18 13:55:07;;;;;;;2.55;0.80;;;18.90;55.70;;;;;;6372536;22;20224;-85
2024/04/18 13:57:36;;;;;;;0.82;0.70;;;18.90;55.80;;;;;;6466581;22;20219;-85
2024/04/18 14:00:13;;;;;;;1.77;0.95;;;18.80;56.20;;;;;;6359264;22;20526;-85
2024/04/18 14:03:34;;;;;;;1.85;0.77;;;18.80;56.10;;;;;;6361638;22;20245;-85
2024/04/18 14:06:31;;;;;;;3.15;1.00;;;18.80;56.20;;;;;;6433890;22;20566;-85
2024/04/18 14:09:23;;;;;;;3.80;0.80;;;18.80;56.50;;;;;;6384163;22;20223;-85
2024/04/18 14:11:57;;;;;;;1.63;0.80;;;18.80;56.10;;;;;;6366848;22;20563;-87
2024/04/18 14:14:22;;;;;;;1.73;0.88;;;18.90;56.00;;;;;;6387839;22;20224;-84
2024/04/18 14:20:04;;;;;;;2.70;0.70;;;18.90;55.70;;;;;;6395202;22;20220;-85
2024/04/18 14:23:56;;;;;;;4.20;1.00;;;18.90;56.00;;;;;;6352989;22;20357;-83
2024/04/18 14:26:04;;;;;;;2.95;1.00;;;18.90;56.30;;;;;;5998634;23;20293;-86
2024/04/18 14:28:31;;;;;;;3.42;1.10;;;18.90;56.40;;;;;;5972001;23;20532;-85
2024/04/18 14:31:02;;;;;;;3.08;1.08;;;18.90;56.10;;;;;;5972243;23;20234;-84
2024/04/18 14:33:33;;;;;;;2.80;0.90;;;18.90;56.40;;;;;;5973413;23;20269;-84
2024/04/18 14:36:00;;;;;;;4.00;0.90;;;18.90;56.20;;;;;;5936433;23;20229;-86
2024/04/18 14:38:28;;;;;;;3.00;0.93;;;18.90;56.40;;;;;;5970712;23;20234;-83
2024/04/18 14:40:55;;;;;;;1.67;1.00;;;18.90;56.10;;;;;;5968901;23;20289;-84
2024/04/18 14:43:27;;;;;;;4.60;1.00;;;18.90;56.00;;;;;;5973932;23;20587;-83